Time;durP1;ratioP1;P1;durP2;ratioP2;P2;SDS_P1;SDS_P2;PMS_P1;PMS_P2;Temp;Humidity;BMP_temperature;BMP_pressure;BME280_temperature;BME280_humidity;BME280_pressure;Samples;Min_cycle;Max_cycle;Signal;HPM_P1;HPM_P2
2023/08/07 00:01:23;;;;;;;8.27;7.90;;;;;;;17.41;77.71;92319.22;5068533;28;20254;-74
2023/08/07 00:03:48;;;;;;;9.00;8.60;;;;;;;17.29;77.51;92311.25;5056554;28;20197;-74
2023/08/07 00:06:13;;;;;;;8.13;7.83;;;;;;;17.27;77.86;92310.81;5066569;28;20183;-74
2023/08/07 00:08:39;;;;;;;8.67;8.27;;;;;;;17.27;78.03;92316.09;5057176;28;20230;-75
2023/08/07 00:11:06;;;;;;;7.77;7.40;;;;;;;17.24;78.10;92302.78;5066917;28;20222;-74
2023/08/07 00:13:31;;;;;;;8.07;7.67;;;;;;;17.24;77.90;92316.75;5067412;28;20442;-74
2023/08/07 00:15:56;;;;;;;8.67;8.27;;;;;;;17.08;78.84;92299.22;5067601;28;20193;-73
2023/08/07 00:18:22;;;;;;;8.90;8.50;;;;;;;17.11;78.86;92301.97;5060410;28;20269;-74
2023/08/07 00:20:47;;;;;;;9.17;8.67;;;;;;;17.17;79.24;92311.22;5065025;28;20197;-74
2023/08/07 00:23:12;;;;;;;8.03;7.73;;;;;;;17.29;78.30;92311.25;5052923;28;20222;-74
2023/08/07 00:25:38;;;;;;;8.37;7.97;;;;;;;17.33;78.45;92320.06;5068787;28;20177;-74
2023/08/07 00:28:03;;;;;;;8.37;7.97;;;;;;;17.31;78.68;92324.91;5069882;28;20225;-74
2023/08/07 00:30:29;;;;;;;7.73;7.33;;;;;;;17.31;77.85;92316.97;5058268;28;20252;-75
2023/08/07 00:32:55;;;;;;;8.57;8.17;;;;;;;17.46;77.21;92329.56;5062104;28;20249;-73
2023/08/07 00:35:20;;;;;;;9.27;8.87;;;;;;;17.61;76.97;92325.53;5050306;28;20871;-74
2023/08/07 00:37:45;;;;;;;9.03;8.63;;;;;;;17.34;79.14;92324.25;5067307;28;20218;-74
2023/08/07 00:40:11;;;;;;;8.37;8.07;;;;;;;17.05;82.25;92334.94;5061244;28;20262;-75
2023/08/07 00:42:36;;;;;;;8.73;8.37;;;;;;;16.96;83.06;92342.16;5055947;28;20230;-74
2023/08/07 00:45:02;;;;;;;9.40;8.90;;;;;;;16.94;84.37;92340.91;5057525;28;20178;-73
2023/08/07 00:47:28;;;;;;;8.87;8.43;;;;;;;16.70;86.51;92338.94;5066512;28;20241;-74
2023/08/07 00:49:53;;;;;;;9.20;8.80;;;;;;;16.65;87.55;92347.06;5058522;28;20214;-73
2023/08/07 00:52:19;;;;;;;8.80;8.40;;;;;;;16.51;87.73;92338.63;5067861;28;20218;-73
2023/08/07 00:54:45;;;;;;;8.27;7.87;;;;;;;16.58;87.91;92354.69;5062352;28;20181;-73
2023/08/07 00:57:12;;;;;;;8.67;8.23;;;;;;;16.62;88.05;92352.97;5055246;28;20271;-73
2023/08/07 00:59:39;;;;;;;9.00;8.50;;;;;;;16.76;86.43;92348.19;5058357;28;20196;-73
2023/08/07 01:02:04;;;;;;;8.80;8.40;;;;;;;16.74;87.01;92350.41;5068186;28;20260;-73
2023/08/07 01:04:31;;;;;;;8.60;8.20;;;;;;;16.50;88.04;92352.13;5057215;28;20211;-74
2023/08/07 01:06:56;;;;;;;8.97;8.57;;;;;;;16.52;87.84;92366.50;5067806;28;20219;-72
2023/08/07 01:09:22;;;;;;;8.60;8.20;;;;;;;16.45;88.80;92368.13;5062547;28;20205;-73
2023/08/07 01:11:50;;;;;;;9.00;8.60;;;;;;;16.39;89.17;92374.63;5065793;28;20225;-73
2023/08/07 01:14:40;;;;;;;8.30;8.00;;;;;;;16.48;89.50;92378.78;5061201;28;20237;-72
2023/08/07 01:17:18;;;;;;;9.53;9.03;;;;;;;16.54;89.61;92382.00;5063009;28;20238;-73
2023/08/07 01:19:45;;;;;;;9.60;8.93;;;;;;;16.47;90.07;92382.50;5065340;28;20311;-73
2023/08/07 01:22:15;;;;;;;8.73;8.37;;;;;;;16.38;90.07;92379.13;5070458;28;20221;-73
2023/08/07 01:24:43;;;;;;;9.93;9.43;;;;;;;16.29;91.08;92381.03;5070804;28;20162;-73
2023/08/07 01:27:17;;;;;;;9.00;8.57;;;;;;;16.28;90.42;92382.09;5079482;28;20229;-73
2023/08/07 01:30:02;;;;;;;9.03;8.63;;;;;;;16.29;91.11;92377.63;5059130;28;20225;-73
2023/08/07 01:32:32;;;;;;;8.23;7.73;;;;;;;16.04;92.34;92369.56;5065128;28;20249;-73
2023/08/07 01:34:59;;;;;;;8.17;7.80;;;;;;;15.95;92.86;92373.31;5058667;28;20192;-74
2023/08/07 01:37:27;;;;;;;8.50;8.03;;;;;;;16.06;92.71;92369.22;5070808;28;20224;-73
2023/08/07 01:39:55;;;;;;;8.83;8.43;;;;;;;15.82;93.55;92361.91;5051796;28;20178;-73
2023/08/07 01:42:20;;;;;;;8.07;7.77;;;;;;;15.90;93.58;92376.91;5065651;28;20221;-73
2023/08/07 01:44:46;;;;;;;9.67;9.17;;;;;;;15.71;94.69;92376.50;5063306;28;20181;-72
2023/08/07 01:47:11;;;;;;;9.70;9.20;;;;;;;15.79;94.50;92372.28;5053771;28;20237;-73
2023/08/07 01:49:38;;;;;;;8.70;8.30;;;;;;;15.77;94.20;92371.81;5063042;28;20205;-73
2023/08/07 01:52:04;;;;;;;8.80;8.37;;;;;;;15.65;95.10;92374.34;5065025;28;20229;-73
2023/08/07 01:54:29;;;;;;;8.47;8.07;;;;;;;15.68;95.87;92371.84;5070836;28;20193;-73
2023/08/07 01:56:55;;;;;;;10.90;10.40;;;;;;;15.74;95.21;92375.84;5070114;28;20865;-73
2023/08/07 01:59:20;;;;;;;9.57;9.17;;;;;;;15.72;95.42;92377.28;5063180;28;20193;-73
2023/08/07 02:01:46;;;;;;;9.10;8.63;;;;;;;15.57;96.31;92380.41;5068028;28;20225;-73
2023/08/07 02:04:11;;;;;;;8.53;8.23;;;;;;;15.32;98.63;92376.72;5050645;28;20182;-73
2023/08/07 02:06:36;;;;;;;9.83;9.23;;;;;;;15.27;98.25;92381.38;5063822;28;20205;-73
2023/08/07 02:09:02;;;;;;;9.60;9.20;;;;;;;15.03;99.36;92386.34;5070680;28;20196;-74
2023/08/07 02:11:27;;;;;;;9.30;8.70;;;;;;;15.11;99.34;92388.19;5070258;28;20239;-73
2023/08/07 02:13:52;;;;;;;9.77;9.37;;;;;;;15.40;97.94;92381.22;5070375;28;20197;-73
2023/08/07 02:16:18;;;;;;;9.93;9.43;;;;;;;15.39;97.68;92392.06;5070034;28;20181;-72
2023/08/07 02:18:43;;;;;;;10.10;9.60;;;;;;;15.34;97.68;92394.81;5069753;28;20174;-73
2023/08/07 02:21:08;;;;;;;8.70;8.13;;;;;;;15.16;98.53;92388.03;5070567;28;20212;-73
2023/08/07 02:23:34;;;;;;;10.07;9.57;;;;;;;15.34;97.96;92394.81;5049936;28;20221;-74
2023/08/07 02:25:59;;;;;;;9.80;9.30;;;;;;;15.28;98.48;92396.06;5053399;28;20186;-77
2023/08/07 02:28:25;;;;;;;9.13;8.73;;;;;;;15.43;97.62;92400.84;5067201;28;20205;-77
2023/08/07 02:30:51;;;;;;;9.23;8.73;;;;;;;15.33;98.71;92406.44;5069808;28;20246;-77
2023/08/07 02:33:16;;;;;;;8.90;8.20;;;;;;;15.17;99.30;92393.00;5069516;28;20244;-77
2023/08/07 02:35:42;;;;;;;9.97;9.27;;;;;;;15.26;98.22;92399.00;5057331;28;20186;-77
2023/08/07 02:38:07;;;;;;;10.10;9.60;;;;;;;15.14;100.00;92398.09;5059756;28;20225;-74
2023/08/07 02:40:32;;;;;;;9.83;9.23;;;;;;;15.20;99.09;92402.88;5069317;28;20180;-76
2023/08/07 02:42:58;;;;;;;9.10;8.70;;;;;;;15.34;98.17;92407.97;5068663;28;20252;-76
2023/08/07 02:45:23;;;;;;;9.97;9.47;;;;;;;15.22;99.40;92395.44;5065939;28;20193;-77
2023/08/07 02:47:48;;;;;;;8.77;8.37;;;;;;;14.99;100.00;92386.19;5052298;28;20241;-76
2023/08/07 02:50:14;;;;;;;10.13;9.63;;;;;;;14.97;100.00;92398.09;5043184;28;20216;-77
2023/08/07 02:52:39;;;;;;;11.20;10.40;;;;;;;14.92;100.00;92406.13;5047857;28;20789;-77
2023/08/07 02:55:05;;;;;;;11.00;10.40;;;;;;;15.03;100.00;92404.75;5062003;28;20193;-77
2023/08/07 02:57:31;;;;;;;11.00;10.40;;;;;;;15.02;100.00;92405.84;5084875;28;20205;-77
2023/08/07 02:59:56;;;;;;;9.50;9.00;;;;;;;14.82;100.00;92409.09;5064371;28;20189;-77
2023/08/07 03:02:21;;;;;;;10.10;9.60;;;;;;;14.95;100.00;92416.03;5069019;28;20224;-76
2023/08/07 03:04:47;;;;;;;10.43;9.83;;;;;;;15.10;100.00;92415.56;5056806;28;20202;-76
2023/08/07 03:07:12;;;;;;;8.83;8.40;;;;;;;15.18;100.00;92410.31;5068098;28;20270;-77
2023/08/07 03:09:37;;;;;;;10.33;9.73;;;;;;;15.25;100.00;92423.75;5069414;28;20213;-77
2023/08/07 03:12:04;;;;;;;10.73;10.13;;;;;;;15.12;100.00;92422.06;5069051;28;20221;-77
2023/08/07 03:14:30;;;;;;;10.70;10.10;;;;;;;15.29;99.49;92405.50;5065710;28;20194;-76
2023/08/07 03:16:55;;;;;;;11.57;10.87;;;;;;;15.53;98.32;92411.06;5074503;28;20240;-77
2023/08/07 03:19:21;;;;;;;10.80;10.30;;;;;;;15.39;100.00;92431.50;5066066;28;20214;-75
2023/08/07 03:21:47;;;;;;;11.10;10.50;;;;;;;15.45;100.00;92432.91;5064047;28;20738;-76
2023/08/07 03:24:12;;;;;;;11.37;10.67;;;;;;;15.52;99.51;92441.06;5077689;28;20199;-77
2023/08/07 03:26:37;;;;;;;11.50;10.83;;;;;;;15.39;100.00;92436.78;5076062;28;20237;-76
2023/08/07 03:29:03;;;;;;;11.33;10.53;;;;;;;15.54;100.00;92450.22;5069504;28;20217;-77
2023/08/07 03:31:28;;;;;;;10.50;9.93;;;;;;;15.77;99.57;92454.19;5068753;28;20226;-77
2023/08/07 03:33:53;;;;;;;11.00;10.40;;;;;;;16.06;98.65;92456.13;5069402;28;20243;-76
2023/08/07 03:36:19;;;;;;;11.00;10.30;;;;;;;16.04;97.43;92458.31;5068612;28;20189;-75
2023/08/07 03:38:44;;;;;;;11.20;10.50;;;;;;;16.11;97.06;92452.56;5041599;28;20188;-75
2023/08/07 03:41:10;;;;;;;12.50;11.70;;;;;;;15.96;98.58;92467.00;5047653;28;20189;-77
2023/08/07 03:43:35;;;;;;;12.57;11.83;;;;;;;15.88;99.86;92465.16;5067697;28;20782;-77
2023/08/07 03:46:00;;;;;;;11.37;10.60;;;;;;;16.18;96.77;92477.31;5068131;28;20189;-74
2023/08/07 03:48:26;;;;;;;11.13;10.53;;;;;;;15.72;97.13;92466.75;5050036;28;20222;-73
2023/08/07 03:50:51;;;;;;;11.23;10.63;;;;;;;15.94;97.39;92474.44;5049021;28;20194;-74
2023/08/07 03:53:17;;;;;;;11.40;10.63;;;;;;;16.15;96.00;92480.59;5057531;28;20223;-74
2023/08/07 03:55:42;;;;;;;10.60;10.03;;;;;;;16.18;95.72;92474.69;5065701;28;20182;-73
2023/08/07 03:58:08;;;;;;;12.00;11.20;;;;;;;15.98;98.38;92480.63;5064677;28;20221;-73
2023/08/07 04:00:33;;;;;;;11.20;10.60;;;;;;;16.33;95.44;92487.31;5068517;28;20344;-73
2023/08/07 04:02:59;;;;;;;10.97;10.37;;;;;;;16.23;94.37;92487.69;5069195;28;20234;-74
2023/08/07 04:05:24;;;;;;;10.57;9.97;;;;;;;16.52;93.27;92498.28;5066622;28;20245;-73
2023/08/07 04:07:49;;;;;;;10.93;10.33;;;;;;;16.48;92.98;92504.50;5044886;28;20219;-73
2023/08/07 04:10:15;;;;;;;11.77;11.03;;;;;;;16.34;92.85;92499.44;5034693;28;20257;-73
2023/08/07 04:12:40;;;;;;;11.17;10.57;;;;;;;16.58;92.81;92498.88;5061646;28;20216;-74
2023/08/07 04:15:06;;;;;;;11.23;10.43;;;;;;;16.41;91.99;92498.91;5072453;28;20203;-74
2023/08/07 04:17:32;;;;;;;11.07;10.43;;;;;;;16.60;91.87;92515.16;5062722;28;20293;-74
2023/08/07 04:19:57;;;;;;;12.10;11.50;;;;;;;16.79;91.19;92516.31;5051692;28;20258;-74
2023/08/07 04:22:22;;;;;;;12.07;11.20;;;;;;;16.20;91.01;92514.66;5060840;28;20229;-74
2023/08/07 04:24:48;;;;;;;10.87;10.37;;;;;;;16.43;90.31;92513.34;5072392;28;20182;-73
2023/08/07 04:27:13;;;;;;;10.77;10.20;;;;;;;16.52;88.80;92510.69;5072169;28;20224;-73
2023/08/07 04:29:39;;;;;;;10.97;10.13;;;;;;;16.18;89.66;92514.19;5071191;28;20248;-73
2023/08/07 04:32:05;;;;;;;10.53;10.03;;;;;;;16.40;89.43;92498.16;5060006;28;20221;-74
2023/08/07 04:34:30;;;;;;;11.33;10.73;;;;;;;16.60;88.33;92518.56;5071277;28;20178;-74
2023/08/07 04:36:56;;;;;;;11.27;10.67;;;;;;;16.42;88.85;92508.38;5060836;28;20234;-74
2023/08/07 04:39:22;;;;;;;9.87;9.37;;;;;;;16.21;90.04;92503.03;5069179;28;20169;-74
2023/08/07 04:41:49;;;;;;;11.30;10.70;;;;;;;16.25;90.01;92497.91;5066692;28;20218;-74
2023/08/07 04:44:15;;;;;;;10.93;10.27;;;;;;;16.24;90.53;92514.78;5069963;28;20193;-74
2023/08/07 04:46:41;;;;;;;11.67;10.97;;;;;;;16.25;89.17;92496.03;5070877;28;20237;-72
2023/08/07 04:49:07;;;;;;;10.97;10.20;;;;;;;16.26;90.39;92508.13;5067198;28;20201;-72
2023/08/07 04:51:33;;;;;;;12.53;11.83;;;;;;;16.36;90.01;92515.66;5070429;28;20240;-72
2023/08/07 04:53:58;;;;;;;11.43;10.83;;;;;;;16.32;90.38;92514.75;5068666;28;20205;-72
2023/08/07 04:56:23;;;;;;;13.33;12.20;;;;;;;16.47;90.38;92518.78;5062399;28;20178;-71
2023/08/07 04:58:49;;;;;;;11.23;10.63;;;;;;;16.49;89.07;92512.09;5066673;28;20193;-70
2023/08/07 05:01:15;;;;;;;10.47;9.87;;;;;;;16.68;88.15;92522.25;5070055;28;20185;-69
2023/08/07 05:03:40;;;;;;;11.03;10.23;;;;;;;17.04;86.66;92525.91;5068408;28;20225;-71
2023/08/07 05:06:06;;;;;;;11.20;10.50;;;;;;;16.90;87.38;92520.09;5057384;28;20204;-70
2023/08/07 05:08:31;;;;;;;10.93;10.33;;;;;;;16.82;87.17;92518.31;5064231;28;20288;-70
2023/08/07 05:10:56;;;;;;;11.03;10.43;;;;;;;16.61;89.00;92501.66;5064405;28;20205;-69
2023/08/07 05:13:22;;;;;;;10.63;10.03;;;;;;;17.46;85.13;92514.34;5061723;28;20225;-69
2023/08/07 05:15:49;;;;;;;11.50;10.57;;;;;;;17.56;83.52;92513.19;5063019;28;20255;-69
2023/08/07 05:18:15;;;;;;;10.97;10.27;;;;;;;17.44;85.44;92516.53;5063857;28;20218;-69
2023/08/07 05:20:41;;;;;;;11.40;10.70;;;;;;;17.78;83.13;92504.13;5069396;28;20782;-69
2023/08/07 05:23:06;;;;;;;10.53;9.87;;;;;;;17.17;85.66;92517.00;5065690;28;20232;-70
2023/08/07 05:25:32;;;;;;;10.70;10.10;;;;;;;17.83;82.56;92501.31;5061101;28;20201;-70
2023/08/07 05:27:57;;;;;;;10.40;9.87;;;;;;;18.25;79.26;92518.59;5055329;28;20231;-69
2023/08/07 05:30:23;;;;;;;10.57;9.93;;;;;;;18.50;79.67;92520.22;5043324;28;20908;-69
2023/08/07 05:32:48;;;;;;;11.00;10.20;;;;;;;18.96;77.53;92517.94;5061315;28;20222;-70
2023/08/07 05:35:14;;;;;;;9.93;9.33;;;;;;;18.13;80.21;92515.94;5067868;28;20186;-70
2023/08/07 05:37:39;;;;;;;10.87;10.17;;;;;;;18.02;80.62;92514.81;5068092;28;20223;-75
2023/08/07 05:40:06;;;;;;;9.83;9.13;;;;;;;17.94;81.88;92513.78;5067483;28;20203;-75
2023/08/07 05:42:31;;;;;;;10.87;10.27;;;;;;;17.92;80.44;92505.41;5069590;28;20233;-74
2023/08/07 05:44:58;;;;;;;10.63;10.03;;;;;;;17.72;82.44;92518.63;5069425;28;20181;-75
2023/08/07 05:47:23;;;;;;;10.50;9.97;;;;;;;17.86;81.02;92519.13;5060927;28;20232;-74
2023/08/07 05:49:49;;;;;;;10.53;9.83;;;;;;;17.70;81.29;92523.50;5049312;28;20239;-75
2023/08/07 05:52:14;;;;;;;9.90;9.40;;;;;;;18.50;78.57;92512.28;5044660;28;20246;-75
2023/08/07 05:54:40;;;;;;;10.13;9.63;;;;;;;19.80;71.45;92519.66;5069882;28;20182;-76
2023/08/07 05:57:05;;;;;;;9.97;9.47;;;;;;;20.23;70.93;92532.22;5060664;28;20232;-78
2023/08/07 05:59:31;;;;;;;10.82;9.93;;;;;;;24.49;56.22;92526.59;5046213;28;20197;-71
2023/08/07 06:01:56;;;;;;;9.68;9.18;;;;;;;25.88;49.59;92538.03;5054402;28;20226;-70
2023/08/07 06:04:22;;;;;;;9.00;8.45;;;;;;;27.58;44.59;92540.78;5067747;28;20187;-68
2023/08/07 06:06:47;;;;;;;8.55;8.15;;;;;;;29.37;40.92;92554.25;5052855;28;20241;-69
2023/08/07 06:09:15;;;;;;;8.50;8.07;;;;;;;27.22;43.68;92548.06;5039259;28;20306;-69
2023/08/07 06:11:40;;;;;;;8.52;7.93;;;;;;;30.51;37.97;92554.72;5047713;28;20260;-70
2023/08/07 06:14:06;;;;;;;8.75;8.00;;;;;;;27.96;41.93;92542.66;5045835;28;20190;-70
2023/08/07 06:16:31;;;;;;;8.57;8.00;;;;;;;27.64;41.89;92539.25;5047874;28;20190;-68
2023/08/07 06:18:57;;;;;;;7.45;7.15;;;;;;;29.58;38.25;92547.97;5073063;28;20212;-73
2023/08/07 06:21:22;;;;;;;7.32;6.93;;;;;;;27.60;42.36;92536.56;5068724;28;20188;-71
2023/08/07 06:23:47;;;;;;;8.45;7.97;;;;;;;27.79;41.98;92532.69;5063004;28;20194;-70
2023/08/07 06:26:13;;;;;;;7.97;7.57;;;;;;;28.50;40.52;92528.66;5068683;28;20207;-73
2023/08/07 06:28:41;;;;;;;8.63;8.15;;;;;;;27.86;41.69;92525.38;5057089;28;20258;-71
2023/08/07 06:31:08;;;;;;;8.35;7.90;;;;;;;27.95;40.78;92525.81;5055437;28;20241;-69
2023/08/07 06:33:34;;;;;;;9.40;8.90;;;;;;;28.35;40.56;92521.81;5068260;28;20244;-73
2023/08/07 06:36:00;;;;;;;8.60;8.20;;;;;;;25.47;48.05;92525.94;5056257;28;20285;-70
2023/08/07 06:38:25;;;;;;;8.82;8.10;;;;;;;22.16;57.72;92510.13;5053496;28;20214;-70
2023/08/07 06:40:51;;;;;;;9.52;8.93;;;;;;;21.46;61.35;92514.00;5066850;28;20208;-70
2023/08/07 06:43:16;;;;;;;8.82;8.32;;;;;;;21.18;63.55;92492.13;5062082;28;20240;-71
2023/08/07 06:45:42;;;;;;;9.45;8.95;;;;;;;20.10;66.05;92507.63;5059050;28;20191;-75
2023/08/07 06:48:07;;;;;;;9.70;9.00;;;;;;;20.47;67.88;92510.88;5067365;28;20283;-78
2023/08/07 06:50:32;;;;;;;9.25;8.50;;;;;;;19.88;65.95;92515.34;5069194;28;20268;-71
2023/08/07 06:52:58;;;;;;;9.18;8.57;;;;;;;19.93;65.33;92481.44;5057968;28;20247;-75
2023/08/07 06:55:24;;;;;;;8.77;8.38;;;;;;;19.83;62.34;92505.75;5053939;28;20204;-73
2023/08/07 06:57:49;;;;;;;8.70;8.20;;;;;;;20.06;63.24;92519.25;5062867;28;20242;-74
2023/08/07 07:00:15;;;;;;;9.38;8.88;;;;;;;19.81;65.81;92510.63;5066111;28;20255;-73
2023/08/07 07:02:41;;;;;;;10.38;9.65;;;;;;;20.20;63.85;92514.34;5050333;28;20251;-74
2023/08/07 07:05:06;;;;;;;9.10;8.60;;;;;;;20.09;62.20;92516.69;5054606;28;20187;-73
2023/08/07 07:07:31;;;;;;;9.57;9.05;;;;;;;20.01;63.88;92514.97;5064678;28;20251;-73
2023/08/07 07:10:00;;;;;;;8.52;8.00;;;;;;;20.14;63.95;92511.16;5075042;28;20237;-72
2023/08/07 07:12:28;;;;;;;7.90;7.50;;;;;;;20.10;61.86;92510.28;5058938;28;20226;-70
2023/08/07 07:14:54;;;;;;;8.35;7.80;;;;;;;19.92;61.98;92510.91;5053983;28;20193;-72
2023/08/07 07:17:19;;;;;;;8.90;8.40;;;;;;;19.89;63.05;92516.88;5082323;28;20238;-72
2023/08/07 07:19:44;;;;;;;9.30;8.80;;;;;;;20.19;61.68;92502.97;5048700;28;20181;-72
2023/08/07 07:22:10;;;;;;;9.35;8.63;;;;;;;20.29;62.06;92513.09;5048004;28;20229;-72
2023/08/07 07:24:35;;;;;;;8.30;7.90;;;;;;;20.35;61.55;92522.34;5054918;28;20193;-70
2023/08/07 07:27:00;;;;;;;9.25;8.80;;;;;;;20.25;60.76;92511.47;5044907;28;20229;-72
2023/08/07 07:29:26;;;;;;;8.27;7.88;;;;;;;20.33;60.85;92524.53;5053963;28;20229;-73
2023/08/07 07:31:53;;;;;;;8.23;7.82;;;;;;;20.36;61.45;92500.00;5047410;28;20214;-71
2023/08/07 07:34:19;;;;;;;8.50;8.10;;;;;;;20.84;59.03;92506.09;5051521;28;20185;-70
2023/08/07 07:36:45;;;;;;;10.30;9.25;;;;;;;20.14;62.49;92466.09;5050594;28;20232;-70
2023/08/07 07:39:10;;;;;;;8.38;7.97;;;;;;;20.59;61.01;92513.47;5045366;28;20221;-69
2023/08/07 07:41:36;;;;;;;9.38;8.65;;;;;;;20.82;59.29;92513.63;5050295;28;20196;-69
2023/08/07 07:44:02;;;;;;;8.68;8.23;;;;;;;20.83;59.71;92523.13;5066474;28;20197;-69
2023/08/07 07:46:28;;;;;;;9.52;9.02;;;;;;;20.40;63.79;92521.31;5067358;28;20229;-69
2023/08/07 07:48:53;;;;;;;9.45;8.95;;;;;;;20.76;60.44;92523.75;5064654;28;20187;-69
2023/08/07 07:51:18;;;;;;;8.82;8.43;;;;;;;20.78;60.27;92510.88;5066050;28;20209;-72
2023/08/07 07:53:44;;;;;;;8.65;8.25;;;;;;;20.56;62.56;92514.91;5069328;28;20197;-73
2023/08/07 07:56:10;;;;;;;8.00;7.50;;;;;;;21.34;59.33;92516.78;5072147;28;20188;-71
2023/08/07 07:58:35;;;;;;;8.52;8.13;;;;;;;21.50;58.82;92512.16;5071317;28;20240;-71
2023/08/07 08:01:00;;;;;;;9.05;8.55;;;;;;;21.18;59.25;92511.50;5065931;28;20190;-71
2023/08/07 08:03:27;;;;;;;7.32;7.03;;;;;;;21.19;59.92;92520.22;5067557;28;20234;-73
2023/08/07 08:05:52;;;;;;;9.07;8.60;;;;;;;21.27;56.74;92514.72;5064435;28;20216;-72
2023/08/07 08:08:17;;;;;;;8.55;8.07;;;;;;;21.33;58.10;92520.53;5070883;28;20234;-69
2023/08/07 08:10:44;;;;;;;8.13;7.72;;;;;;;21.26;56.82;92521.13;5063576;28;20238;-69
2023/08/07 08:13:10;;;;;;;8.95;8.45;;;;;;;21.31;58.32;92523.53;5067878;28;20312;-70
2023/08/07 08:15:35;;;;;;;10.02;9.43;;;;;;;21.34;59.25;92511.47;5060223;28;20185;-71
2023/08/07 08:18:01;;;;;;;9.48;8.98;;;;;;;21.33;57.85;92520.53;5058636;28;20219;-69
2023/08/07 08:20:26;;;;;;;9.55;9.05;;;;;;;21.71;57.32;92515.28;5070291;28;20212;-70
2023/08/07 08:22:52;;;;;;;8.90;8.50;;;;;;;21.11;58.69;92513.97;5074200;28;20226;-70
2023/08/07 08:25:20;;;;;;;8.50;8.10;;;;;;;21.22;57.76;92508.88;5068653;28;20248;-70
2023/08/07 08:27:45;;;;;;;9.63;8.82;;;;;;;20.77;59.43;92516.53;5073964;28;20218;-70
2023/08/07 08:30:11;;;;;;;8.68;8.18;;;;;;;21.23;60.95;92505.88;5073869;28;20252;-70
2023/08/07 08:32:38;;;;;;;9.32;8.82;;;;;;;21.68;55.41;92506.09;5074382;28;20235;-70
2023/08/07 08:35:04;;;;;;;9.73;8.93;;;;;;;21.73;56.32;92502.41;5071401;28;20179;-72
2023/08/07 08:37:30;;;;;;;8.88;8.40;;;;;;;21.91;57.23;92506.22;5065571;28;20242;-71
2023/08/07 08:39:55;;;;;;;9.18;8.40;;;;;;;21.30;56.31;92465.44;5050543;28;20188;-71
2023/08/07 08:42:20;;;;;;;8.30;7.90;;;;;;;21.56;55.64;92494.84;5060909;28;20226;-71
2023/08/07 08:44:52;;;;;;;9.32;8.82;;;;;;;21.17;59.00;92501.22;5060769;28;20867;-72
2023/08/07 08:47:18;;;;;;;8.80;8.40;;;;;;;21.36;57.78;92499.34;5068364;28;20228;-71
2023/08/07 08:49:47;;;;;;;10.30;9.48;;;;;;;21.69;57.16;92485.63;5060419;28;20213;-70
2023/08/07 08:52:13;;;;;;;8.80;8.30;;;;;;;22.23;56.12;92499.63;5067528;28;20289;-72
2023/08/07 08:54:40;;;;;;;9.20;8.45;;;;;;;21.95;56.35;92491.09;5064706;28;20172;-72
2023/08/07 08:57:06;;;;;;;10.45;9.85;;;;;;;22.04;54.84;92500.41;5067863;28;20224;-72
2023/08/07 08:59:33;;;;;;;9.27;8.77;;;;;;;22.20;54.68;92489.69;5069941;28;20199;-72
2023/08/07 09:01:58;;;;;;;8.82;8.43;;;;;;;22.04;55.40;92475.69;5066696;28;20234;-70
2023/08/07 09:04:24;;;;;;;9.35;8.52;;;;;;;21.92;54.49;92489.91;5064125;28;20181;-69
2023/08/07 09:06:49;;;;;;;9.35;8.65;;;;;;;21.70;55.59;92492.47;5065083;28;20223;-69
2023/08/07 09:09:17;;;;;;;10.38;9.63;;;;;;;22.07;54.94;92464.38;5061487;28;20194;-69
2023/08/07 09:11:44;;;;;;;9.25;8.68;;;;;;;21.69;56.03;92493.59;5068684;28;20214;-71
2023/08/07 09:14:14;;;;;;;9.93;8.98;;;;;;;21.51;55.75;92481.84;5069626;28;20239;-74
2023/08/07 09:16:39;;;;;;;10.13;9.52;;;;;;;21.64;58.05;92477.91;5069198;28;20238;-75
2023/08/07 09:19:06;;;;;;;9.07;8.57;;;;;;;21.84;54.12;92479.47;5067929;28;20183;-74
2023/08/07 09:21:31;;;;;;;9.70;9.20;;;;;;;21.91;55.65;92479.63;5063578;28;20186;-74
2023/08/07 09:23:57;;;;;;;8.93;8.52;;;;;;;21.79;54.39;92474.47;5060804;28;20185;-74
2023/08/07 09:26:26;;;;;;;8.45;8.05;;;;;;;22.22;55.97;92482.13;5061597;28;20187;-74
2023/08/07 09:28:54;;;;;;;8.90;8.40;;;;;;;22.12;53.49;92478.16;5070417;28;20174;-75
2023/08/07 09:31:21;;;;;;;9.52;9.02;;;;;;;22.07;53.67;92469.69;5070326;28;20213;-74
2023/08/07 09:33:48;;;;;;;9.10;8.55;;;;;;;22.23;53.66;92470.34;5070553;28;20171;-69
2023/08/07 09:36:13;;;;;;;9.38;8.88;;;;;;;22.47;54.43;92459.38;5067815;28;20182;-69
2023/08/07 09:38:39;;;;;;;9.90;9.20;;;;;;;22.06;54.69;92460.16;5069386;28;20218;-69
2023/08/07 09:41:04;;;;;;;9.98;9.05;;;;;;;22.73;53.41;92467.44;5069645;28;20190;-69
2023/08/07 09:43:36;;;;;;;8.80;8.40;;;;;;;22.94;54.70;92459.03;5069837;28;20221;-68
2023/08/07 09:46:06;;;;;;;9.82;8.93;;;;;;;22.60;53.18;92466.06;5062079;28;20187;-68
2023/08/07 09:48:38;;;;;;;8.25;7.85;;;;;;;22.68;52.35;92473.06;5068478;28;20215;-68
2023/08/07 09:51:04;;;;;;;8.60;8.20;;;;;;;22.50;51.37;92465.88;5067030;28;20229;-68
2023/08/07 09:53:30;;;;;;;7.85;7.35;;;;;;;22.76;53.56;92469.41;5066000;28;20231;-68
2023/08/07 09:55:56;;;;;;;7.97;7.60;;;;;;;22.63;52.56;92476.00;5070799;28;21172;-68
2023/08/07 09:58:22;;;;;;;8.70;8.30;;;;;;;22.84;50.90;92471.03;5070274;28;20228;-68
2023/08/07 10:00:48;;;;;;;7.90;7.50;;;;;;;22.70;52.76;92470.81;5070682;28;20238;-68
2023/08/07 10:03:14;;;;;;;8.50;8.10;;;;;;;22.49;52.93;92478.41;5069571;28;20229;-68
2023/08/07 10:05:43;;;;;;;8.93;8.43;;;;;;;22.75;53.43;92461.75;5068785;28;20203;-67
2023/08/07 10:08:10;;;;;;;8.35;7.95;;;;;;;22.89;51.56;92461.97;5055562;28;20223;-69
2023/08/07 10:10:37;;;;;;;8.48;7.97;;;;;;;22.90;50.93;92468.84;5068540;28;20203;-68
2023/08/07 10:13:02;;;;;;;7.85;7.43;;;;;;;23.06;51.81;92475.56;5070423;28;20243;-70
2023/08/07 10:15:29;;;;;;;8.40;8.00;;;;;;;23.37;49.58;92471.84;5065197;28;20195;-69
2023/08/07 10:17:54;;;;;;;8.27;7.78;;;;;;;23.11;51.44;92463.84;5069997;28;20249;-69
2023/08/07 10:20:21;;;;;;;8.27;7.88;;;;;;;23.25;52.13;92475.47;5051419;28;20192;-69
2023/08/07 10:22:47;;;;;;;8.98;8.48;;;;;;;23.61;50.51;92477.50;5051238;28;20226;-68
2023/08/07 10:25:13;;;;;;;8.30;7.85;;;;;;;23.62;49.61;92489.72;5058080;28;20186;-68
2023/08/07 10:27:42;;;;;;;8.95;8.55;;;;;;;23.64;51.62;92481.34;5070743;28;20353;-69
2023/08/07 10:30:13;;;;;;;8.32;7.85;;;;;;;23.85;50.07;92478.16;5050857;28;20272;-68
2023/08/07 10:32:39;;;;;;;8.45;8.05;;;;;;;23.85;47.94;92480.84;5054956;28;20224;-68
2023/08/07 10:35:05;;;;;;;8.00;7.60;;;;;;;23.50;49.28;92481.19;5070134;28;20188;-68
2023/08/07 10:37:41;;;;;;;9.02;8.43;;;;;;;23.69;49.97;92468.47;5069126;28;20232;-68
2023/08/07 10:40:11;;;;;;;7.65;7.15;;;;;;;23.62;50.02;92465.72;5068693;28;20201;-68
2023/08/07 10:42:54;;;;;;;9.20;8.60;;;;;;;23.66;48.97;92469.19;5071926;28;20227;-68
2023/08/07 10:45:22;;;;;;;8.48;7.97;;;;;;;23.35;49.57;92464.22;5071329;28;20201;-69
2023/08/07 10:48:18;;;;;;;8.25;7.85;;;;;;;23.70;48.50;92466.56;5055095;28;20209;-68
2023/08/07 10:50:51;;;;;;;8.70;8.20;;;;;;;23.71;50.36;92460.88;5037521;28;20238;-68
2023/08/07 10:53:21;;;;;;;8.73;8.23;;;;;;;24.04;47.76;92459.38;5056778;28;20238;-68
2023/08/07 10:55:48;;;;;;;7.70;7.30;;;;;;;23.67;48.56;92464.63;5066303;28;20185;-68
2023/08/07 10:58:29;;;;;;;8.77;8.18;;;;;;;23.86;47.78;92453.06;5061178;28;20216;-68
2023/08/07 11:01:19;;;;;;;7.97;7.55;;;;;;;23.66;47.45;92457.75;5063176;28;20185;-68
2023/08/07 11:03:45;;;;;;;8.65;8.15;;;;;;;23.71;48.56;92455.56;5054372;28;20342;-69
2023/08/07 11:06:11;;;;;;;8.05;7.53;;;;;;;23.64;48.65;92441.38;5069778;28;20211;-69
2023/08/07 11:08:37;;;;;;;8.40;8.00;;;;;;;23.93;48.82;92447.78;5068734;28;20246;-69
2023/08/07 11:11:06;;;;;;;8.30;7.90;;;;;;;24.15;47.94;92439.69;5068247;28;20214;-70
2023/08/07 11:13:33;;;;;;;9.02;8.52;;;;;;;24.36;45.55;92449.81;5068301;28;20227;-69
2023/08/07 11:16:00;;;;;;;7.45;7.15;;;;;;;24.08;47.65;92436.94;5061568;28;20191;-69
2023/08/07 11:18:26;;;;;;;8.43;8.02;;;;;;;23.97;47.61;92433.38;5065742;28;20221;-69
2023/08/07 11:20:55;;;;;;;8.10;7.60;;;;;;;23.97;48.54;92424.63;5058570;28;20184;-68
2023/08/07 11:23:24;;;;;;;8.30;7.90;;;;;;;24.01;46.41;92430.75;5059069;28;20212;-69
2023/08/07 11:25:50;;;;;;;8.43;7.90;;;;;;;24.49;45.12;92419.81;5067351;28;20203;-69